Hanahan, South Carolina
Current Conditions -  °F | °C
As of 11:56 AM on Sunday 21 Dec 2014 (Local Time) from KCHS Reporting Station
Overcast Overcast  
Wind Chill: 44°   Ceiling: 7000
Heat Index: 49°   Visibility: 10mi
Dew Point: 40°   Wind: 12mph
Humidity: 71%   Direction: 40°NE
Pressure: 30.21"   Gusts: NA
Location:  32.9116°N, 80.0017°W
Report Text: KCHS 211656Z 04010KT 10SM SCT050 OVC070 09/04 A3021 RMK AO2 RAB25E45 SLP229 P0000 T00940044 $
Loading
Personal Weather Stations






























Interactive Weather Map New forecast layout! Learn more

10-Day Weather Forecast

Advertisements
Track Severe Weather on mobile